SGCO/CIO METAR and TAF weather

Enter ICAO airport designator
Station Type Date Time Source
SGCO METAR 2019/06/24 21:00 UTC NOAA

SGCO 242100Z 07008KT CAVOK 29/17 Q1006


Station Type Date Time Source
SGCO Decoded METAR 2019/06/24 21:00 UTC NOAA

Concepcion, Paraguay (SGCO) 23-25S 057-18W 74M
Jun 24, 2019 - 05:00 PM EDT / 2019.06.24 2100 UTC
Wind: from the ENE (070 degrees) at 9 MPH (8 KT):0
Visibility: greater than 7 mile(s):0
Temperature: 84 F (29 C)
Dew Point: 62 F (17 C)
Relative Humidity: 48%
Pressure (altimeter): 29.71 in. Hg (1006 hPa)
ob: SGCO 242100Z 07008KT CAVOK 29/17 Q1006
cycle: 21

Station Type Date Time Source
SGCO TAF 2019/06/26 06:03 UTC NOAA

TAF SGCO 260503Z 2606/2706 18020KT 9999 BKN020 TX17/2619Z TN10/2609Z
BECMG 2608/2611 18015KT 5000 DZ OVC008
BECMG 2612/2615 7000 DZ BKN010
BECMG 2616/2619 18018KT 9999 OVC010

Example: see airport list